Randolph, Nebraska
Current Conditions -  °F | °C
As of 8:15 AM on Wednesday 28 Jan 2015 (Local Time) from KLCG Reporting Station
Clear Clear  
Wind Chill: 25°   Ceiling: Unl
Heat Index: 32°   Visibility: 10mi
Dew Point: 29°   Wind: 8mph
Humidity: 89%   Direction: 170°S
Pressure: 29.82"   Gusts: NA
Location:  42.38°N, 97.36°W
Report Text: KLCG 281415Z AUTO 17007KT 10SM CLR 00/M02 A2982 RMK AO2 T00001016
Loading
Personal Weather Stations






























Interactive Weather Map New forecast layout! Learn more

10-Day Weather Forecast

Advertisements
Track Severe Weather on mobile